createdAt,value
2018-10-11T00:02:04.313Z,14.30
2018-10-11T00:04:35.861Z,14.30
2018-10-11T00:07:07.735Z,14.20
2018-10-11T00:09:39.617Z,14.20
2018-10-11T00:12:11.905Z,14.30
2018-10-11T00:14:43.242Z,14.20
2018-10-11T00:17:15.289Z,14.20
2018-10-11T00:19:47.433Z,14.20
2018-10-11T00:22:19.387Z,14.20
2018-10-11T00:24:51.044Z,14.10
2018-10-11T00:27:22.765Z,14.10
2018-10-11T00:29:54.482Z,14.10
2018-10-11T00:32:26.539Z,14.10
2018-10-11T00:34:58.401Z,14.00
2018-10-11T00:37:30.527Z,14.00
2018-10-11T00:40:02.404Z,14.00
2018-10-11T00:42:34.084Z,14.10
2018-10-11T00:45:06.190Z,14.10
2018-10-11T00:47:39.028Z,14.00
2018-10-11T00:50:10.471Z,13.90
2018-10-11T00:52:42.113Z,13.80
2018-10-11T00:55:13.903Z,13.80
2018-10-11T00:57:45.775Z,13.90
2018-10-11T01:00:18.060Z,13.90
2018-10-11T01:02:50.047Z,13.90
2018-10-11T01:05:21.713Z,13.80
2018-10-11T01:07:53.525Z,13.80
2018-10-11T01:10:25.284Z,13.70
2018-10-11T01:12:57.197Z,13.60
2018-10-11T01:15:28.969Z,13.50
2018-10-11T01:18:00.769Z,13.50
2018-10-11T01:20:33.027Z,13.60
2018-10-11T01:23:04.416Z,13.60
2018-10-11T01:25:36.217Z,13.60
2018-10-11T01:28:08.315Z,13.70
2018-10-11T01:30:44.903Z,13.70
2018-10-11T01:33:16.797Z,13.60
2018-10-11T01:35:48.614Z,13.60
2018-10-11T01:38:20.494Z,13.50
2018-10-11T01:40:52.411Z,13.40
2018-10-11T01:43:24.267Z,13.30
2018-10-11T01:45:57.063Z,13.40
2018-10-11T01:48:32.929Z,13.50
2018-10-11T01:51:05.566Z,13.60
2018-10-11T01:53:37.316Z,13.60
2018-10-11T01:56:09.427Z,13.50
2018-10-11T01:58:41.395Z,13.50
2018-10-11T02:01:13.162Z,13.50
2018-10-11T02:03:44.878Z,13.40
2018-10-11T02:06:16.464Z,13.30
2018-10-11T02:08:48.369Z,13.30
2018-10-11T02:11:19.806Z,13.20
2018-10-11T02:13:51.587Z,13.10
2018-10-11T02:16:23.416Z,13.00
2018-10-11T02:18:55.061Z,13.10
2018-10-11T02:21:27.042Z,13.10
2018-10-11T02:23:59.300Z,12.90
2018-10-11T02:26:31.099Z,12.80
2018-10-11T02:29:02.953Z,12.70
2018-10-11T02:31:34.587Z,12.60
2018-10-11T02:34:06.565Z,12.70
2018-10-11T02:36:38.259Z,12.60
2018-10-11T02:39:11.058Z,12.50
2018-10-11T02:41:42.863Z,12.50
2018-10-11T02:44:14.235Z,12.40
2018-10-11T02:46:46.166Z,12.30
2018-10-11T02:49:17.895Z,12.30
2018-10-11T02:51:49.569Z,12.40
2018-10-11T02:54:21.539Z,12.50
2018-10-11T02:56:56.717Z,12.60
2018-10-11T02:59:34.402Z,12.60
2018-10-11T03:02:11.163Z,12.50
2018-10-11T03:04:45.866Z,12.50
2018-10-11T03:07:18.837Z,12.50
2018-10-11T03:09:50.712Z,12.60
2018-10-11T03:12:22.590Z,12.60
2018-10-11T03:14:54.617Z,12.70
2018-10-11T03:17:26.256Z,12.60
2018-10-11T03:19:58.050Z,12.60
2018-10-11T03:22:29.684Z,12.40
2018-10-11T03:25:01.540Z,12.40
2018-10-11T03:27:33.530Z,12.40
2018-10-11T03:30:05.346Z,12.30
2018-10-11T03:32:37.267Z,12.30
2018-10-11T03:35:09.180Z,12.30
2018-10-11T03:37:41.002Z,12.40
2018-10-11T03:40:12.262Z,12.50
2018-10-11T03:42:44.034Z,12.60
2018-10-11T03:45:16.315Z,12.60
2018-10-11T03:47:48.355Z,12.60
2018-10-11T03:50:20.047Z,12.50
2018-10-11T03:52:52.059Z,12.50
2018-10-11T03:55:23.996Z,12.50
2018-10-11T03:57:55.960Z,12.40
2018-10-11T04:00:27.688Z,12.30
2018-10-11T04:02:58.845Z,12.40
2018-10-11T04:05:30.674Z,12.40
2018-10-11T04:08:02.331Z,12.40
2018-10-11T04:10:33.383Z,12.30
2018-10-11T04:13:03.710Z,12.40
2018-10-11T04:15:35.463Z,12.50
2018-10-11T04:18:07.715Z,12.50
2018-10-11T04:20:39.065Z,12.40
2018-10-11T04:23:14.949Z,12.40
2018-10-11T04:25:46.820Z,12.40
2018-10-11T04:28:17.956Z,12.40
2018-10-11T04:30:49.059Z,12.40
2018-10-11T04:33:20.846Z,12.30
2018-10-11T04:35:52.731Z,12.30
2018-10-11T04:38:23.905Z,12.20
2018-10-11T04:40:55.247Z,12.10
2018-10-11T04:43:26.992Z,12.00
2018-10-11T04:45:59.041Z,11.90
2018-10-11T04:48:29.482Z,11.80
2018-10-11T04:51:00.885Z,11.80
2018-10-11T04:53:32.938Z,11.80
2018-10-11T04:56:04.842Z,11.70
2018-10-11T04:58:36.265Z,11.80
2018-10-11T05:01:07.606Z,12.00
2018-10-11T05:03:39.703Z,12.20
2018-10-11T05:06:11.473Z,12.50
2018-10-11T05:08:42.699Z,12.60
2018-10-11T05:11:14.536Z,12.60
2018-10-11T05:13:48.767Z,12.60
2018-10-11T05:16:20.587Z,12.70
2018-10-11T05:19:03.171Z,12.80
2018-10-11T05:21:34.673Z,12.70
2018-10-11T05:24:07.203Z,12.70
2018-10-11T05:26:38.587Z,12.70
2018-10-11T05:29:10.263Z,12.70
2018-10-11T05:31:42.005Z,13.00
2018-10-11T05:34:14.518Z,13.00
2018-10-11T05:36:46.236Z,13.00
2018-10-11T05:39:18.992Z,13.00
2018-10-11T05:41:51.293Z,13.00
2018-10-11T05:44:22.746Z,13.10
2018-10-11T05:46:55.553Z,13.20
2018-10-11T05:49:28.091Z,13.30
2018-10-11T05:52:00.241Z,13.30
2018-10-11T05:54:31.857Z,13.40
2018-10-11T05:57:03.285Z,13.40
2018-10-11T05:59:35.426Z,13.30
2018-10-11T06:02:08.943Z,13.30
2018-10-11T06:04:40.171Z,13.30
2018-10-11T06:07:11.679Z,13.40
2018-10-11T06:09:43.848Z,13.30
2018-10-11T06:12:15.575Z,13.30
2018-10-11T06:14:47.096Z,13.30
2018-10-11T06:17:19.071Z,13.20
2018-10-11T06:19:51.353Z,13.30
2018-10-11T06:22:22.701Z,13.30
2018-10-11T06:24:54.097Z,13.30
2018-10-11T06:27:27.219Z,13.30
2018-10-11T06:29:59.780Z,13.40
2018-10-11T06:32:31.137Z,13.40
2018-10-11T06:35:02.553Z,13.40
2018-10-11T06:37:34.480Z,13.30
2018-10-11T06:40:06.497Z,13.40
2018-10-11T06:42:37.159Z,13.50
2018-10-11T06:45:10.613Z,13.60
2018-10-11T06:47:43.280Z,13.60
2018-10-11T06:50:15.520Z,13.70
2018-10-11T06:52:46.742Z,13.70
2018-10-11T06:55:18.965Z,13.80
2018-10-11T06:57:51.593Z,13.90
2018-10-11T07:00:22.887Z,14.10
2018-10-11T07:02:54.334Z,14.30
2018-10-11T07:05:26.721Z,14.30
2018-10-11T07:07:58.801Z,14.40
2018-10-11T07:10:30.022Z,14.40
2018-10-11T07:13:01.241Z,14.40
2018-10-11T07:15:32.714Z,14.50
2018-10-11T07:18:05.611Z,14.60
2018-10-11T07:20:37.022Z,14.60
2018-10-11T07:23:08.057Z,14.60
2018-10-11T07:25:40.270Z,14.70
2018-10-11T07:28:14.319Z,14.80
2018-10-11T07:30:45.699Z,15.00
2018-10-11T07:33:17.877Z,15.00
2018-10-11T07:35:50.096Z,15.10
2018-10-11T07:38:21.528Z,15.10
2018-10-11T07:40:52.831Z,15.10
2018-10-11T07:43:25.228Z,15.20
2018-10-11T07:45:57.507Z,15.20
2018-10-11T07:48:28.884Z,15.30
2018-10-11T07:51:00.308Z,15.40
2018-10-11T07:53:32.788Z,15.50
2018-10-11T07:56:04.747Z,15.50
2018-10-11T07:58:36.252Z,15.50
2018-10-11T08:01:07.894Z,15.60
2018-10-11T08:03:41.894Z,15.70
2018-10-11T08:06:14.078Z,15.80
2018-10-11T08:08:45.876Z,15.80
2018-10-11T08:11:17.459Z,15.90
2018-10-11T08:13:49.664Z,15.90
2018-10-11T08:16:22.145Z,16.00
2018-10-11T08:18:53.100Z,16.10
2018-10-11T08:21:25.450Z,16.40
2018-10-11T08:23:57.776Z,16.60
2018-10-11T08:26:30.162Z,16.90
2018-10-11T08:29:01.866Z,17.40
2018-10-11T08:31:33.934Z,18.00
2018-10-11T08:34:05.897Z,18.30
2018-10-11T08:36:37.284Z,18.60
2018-10-11T08:39:11.314Z,19.00
2018-10-11T08:41:43.130Z,19.20
2018-10-11T08:44:15.090Z,19.30
2018-10-11T08:46:47.144Z,19.40
2018-10-11T08:49:19.357Z,19.80
2018-10-11T08:51:51.383Z,20.10
2018-10-11T08:54:28.832Z,20.20
2018-10-11T08:57:01.521Z,20.30
2018-10-11T08:59:34.514Z,20.30
2018-10-11T09:02:08.356Z,20.30
2018-10-11T09:04:39.431Z,20.30
2018-10-11T09:07:11.696Z,20.40
2018-10-11T09:09:45.128Z,20.20
2018-10-11T09:12:16.802Z,20.10
2018-10-11T09:14:49.512Z,19.90
2018-10-11T09:17:22.399Z,20.10
2018-10-11T09:19:55.312Z,20.20
2018-10-11T09:22:27.700Z,20.50
2018-10-11T09:24:59.550Z,20.80
2018-10-11T09:27:32.420Z,21.00
2018-10-11T09:30:05.926Z,20.80
2018-10-11T09:32:37.721Z,20.90
2018-10-11T09:35:09.732Z,21.00
2018-10-11T09:37:42.344Z,20.90
2018-10-11T09:40:14.891Z,20.90
2018-10-11T09:42:49.535Z,20.90
2018-10-11T09:45:22.198Z,20.70
2018-10-11T09:47:54.625Z,21.00
2018-10-11T09:50:26.980Z,21.10
2018-10-11T09:52:58.322Z,21.10
2018-10-11T09:55:32.335Z,21.00
2018-10-11T09:58:04.992Z,21.00
2018-10-11T10:00:42.042Z,21.00
2018-10-11T10:03:13.110Z,21.00
2018-10-11T10:05:45.129Z,20.90
2018-10-11T10:08:16.941Z,20.90
2018-10-11T10:10:50.010Z,20.90
2018-10-11T10:13:23.523Z,21.00
2018-10-11T10:15:55.916Z,20.90
2018-10-11T10:18:27.706Z,20.90
2018-10-11T10:20:59.524Z,20.90
2018-10-11T10:23:32.154Z,20.80
2018-10-11T10:26:05.225Z,20.50
2018-10-11T10:28:37.142Z,20.60
2018-10-11T10:31:08.618Z,20.70
2018-10-11T10:33:42.016Z,20.60
2018-10-11T10:36:14.090Z,20.60
2018-10-11T10:38:46.701Z,20.70
2018-10-11T10:41:21.105Z,20.80
2018-10-11T10:43:53.733Z,20.80
2018-10-11T10:46:25.672Z,20.90
2018-10-11T10:48:56.851Z,20.80
2018-10-11T10:51:29.971Z,20.90
2018-10-11T10:54:02.438Z,20.80
2018-10-11T10:56:34.932Z,20.70
2018-10-11T10:59:09.256Z,20.80
2018-10-11T11:01:41.708Z,20.80
2018-10-11T11:04:14.918Z,20.90
2018-10-11T11:06:47.248Z,21.00
2018-10-11T11:09:23.416Z,21.20
2018-10-11T11:11:56.090Z,21.30
2018-10-11T11:14:27.898Z,21.50
2018-10-11T11:17:00.011Z,21.60
2018-10-11T11:19:32.537Z,21.70
2018-10-11T11:22:05.063Z,21.90
2018-10-11T11:24:36.917Z,22.00
2018-10-11T11:27:08.934Z,22.30
2018-10-11T11:29:41.425Z,22.40
2018-10-11T11:32:14.279Z,22.40
2018-10-11T11:34:46.035Z,22.40
2018-10-11T11:37:19.707Z,22.70
2018-10-11T11:39:52.761Z,22.80
2018-10-11T11:42:24.222Z,22.80
2018-10-11T11:44:56.038Z,22.80
2018-10-11T11:47:28.596Z,22.70
2018-10-11T11:50:02.642Z,22.80
2018-10-11T11:52:34.336Z,23.00
2018-10-11T11:55:06.390Z,23.00
2018-10-11T11:57:39.282Z,23.10
2018-10-11T12:00:12.040Z,23.10
2018-10-11T12:02:44.034Z,23.00
2018-10-11T12:05:16.672Z,22.90
2018-10-11T12:07:49.485Z,23.00
2018-10-11T12:10:21.738Z,23.10
2018-10-11T12:12:57.098Z,23.30
2018-10-11T12:15:30.610Z,23.40
2018-10-11T12:18:04.100Z,23.30
2018-10-11T12:20:37.498Z,23.10
2018-10-11T12:23:10.737Z,23.00
2018-10-11T12:25:43.314Z,23.00
2018-10-11T12:28:16.139Z,23.00
2018-10-11T12:30:49.318Z,23.00
2018-10-11T12:33:21.453Z,23.20
2018-10-11T12:35:53.784Z,23.10
2018-10-11T12:38:28.602Z,23.00
2018-10-11T12:41:00.985Z,23.00
2018-10-11T12:43:33.062Z,22.90
2018-10-11T12:46:05.583Z,22.90
2018-10-11T12:48:37.502Z,23.00
2018-10-11T12:51:09.770Z,23.10
2018-10-11T12:53:45.096Z,23.20
2018-10-11T12:56:15.619Z,23.10
2018-10-11T12:58:49.202Z,22.90
2018-10-11T13:01:24.066Z,22.90
2018-10-11T13:03:55.060Z,23.10
2018-10-11T13:06:27.098Z,23.10
2018-10-11T13:08:59.206Z,23.10
2018-10-11T13:11:34.738Z,23.10
2018-10-11T13:14:07.723Z,23.30
2018-10-11T13:16:39.738Z,23.40
2018-10-11T13:19:10.828Z,23.40
2018-10-11T13:21:43.656Z,23.70
2018-10-11T13:24:15.406Z,23.70
2018-10-11T13:26:47.788Z,23.70
2018-10-11T13:29:20.894Z,23.80
2018-10-11T13:31:53.709Z,23.90
2018-10-11T13:34:25.715Z,24.10
2018-10-11T13:36:57.840Z,24.30
2018-10-11T13:39:30.668Z,24.20
2018-10-11T13:42:03.146Z,24.10
2018-10-11T13:44:35.028Z,24.10
2018-10-11T13:47:07.012Z,24.30
2018-10-11T13:49:40.415Z,24.60
2018-10-11T13:52:15.494Z,24.70
2018-10-11T13:54:45.182Z,24.60
2018-10-11T13:57:18.291Z,24.40
2018-10-11T13:59:51.014Z,24.30
2018-10-11T14:02:22.086Z,24.40
2018-10-11T14:04:54.479Z,24.30
2018-10-11T14:07:27.061Z,24.30
2018-10-11T14:09:59.900Z,24.30
2018-10-11T14:12:31.808Z,24.30
2018-10-11T14:15:03.666Z,24.30
2018-10-11T14:17:36.682Z,24.40
2018-10-11T14:20:10.574Z,24.40
2018-10-11T14:22:42.378Z,24.30
2018-10-11T14:25:15.915Z,24.10
2018-10-11T14:27:49.395Z,24.10
2018-10-11T14:30:21.184Z,24.10
2018-10-11T14:32:52.971Z,24.00
2018-10-11T14:35:25.657Z,23.90
2018-10-11T14:37:58.189Z,23.90
2018-10-11T14:40:30.172Z,23.70
2018-10-11T14:43:02.061Z,23.80
2018-10-11T14:45:35.625Z,23.90
2018-10-11T14:48:08.287Z,23.90
2018-10-11T14:50:39.428Z,23.90
2018-10-11T14:53:11.153Z,23.80
2018-10-11T14:55:44.006Z,23.80
2018-10-11T14:58:16.205Z,23.80
2018-10-11T15:00:49.805Z,23.80
2018-10-11T15:03:22.403Z,23.60
2018-10-11T15:05:55.170Z,23.50
2018-10-11T15:08:27.325Z,23.40
2018-10-11T15:10:59.163Z,23.20
2018-10-11T15:13:31.741Z,23.20
2018-10-11T15:16:05.668Z,23.30
2018-10-11T15:18:37.913Z,23.20
2018-10-11T15:21:09.763Z,23.10
2018-10-11T15:23:42.736Z,23.00
2018-10-11T15:26:15.625Z,22.90
2018-10-11T15:28:47.491Z,22.80
2018-10-11T15:31:20.161Z,22.80
2018-10-11T15:33:52.115Z,22.60
2018-10-11T15:36:24.193Z,22.40
2018-10-11T15:38:55.993Z,22.20
2018-10-11T15:41:28.543Z,22.00
2018-10-11T15:44:01.607Z,21.80
2018-10-11T15:46:33.638Z,21.50
2018-10-11T15:49:06.604Z,21.30
2018-10-11T15:51:40.818Z,21.00
2018-10-11T15:54:12.950Z,20.60
2018-10-11T15:56:44.723Z,20.20
2018-10-11T15:59:17.345Z,19.90
2018-10-11T16:01:50.471Z,19.60
2018-10-11T16:04:22.575Z,19.40
2018-10-11T16:06:54.497Z,19.20
2018-10-11T16:09:27.559Z,19.00
2018-10-11T16:12:00.749Z,18.70
2018-10-11T16:14:31.169Z,18.30
2018-10-11T16:17:02.426Z,17.90
2018-10-11T16:19:34.643Z,17.60
2018-10-11T16:22:06.605Z,17.30
2018-10-11T16:24:37.816Z,17.00
2018-10-11T16:27:11.105Z,16.70
2018-10-11T16:29:43.391Z,16.40
2018-10-11T16:32:15.431Z,16.10
2018-10-11T16:34:46.694Z,15.90
2018-10-11T16:37:19.399Z,15.60
2018-10-11T16:39:51.195Z,15.40
2018-10-11T16:42:21.743Z,15.20
2018-10-11T16:44:54.091Z,15.00
2018-10-11T16:47:26.189Z,14.80
2018-10-11T16:49:58.548Z,14.50
2018-10-11T16:52:29.985Z,14.30
2018-10-11T16:55:01.396Z,14.10
2018-10-11T16:57:32.936Z,14.00
2018-10-11T17:00:05.497Z,13.80
2018-10-11T17:02:36.710Z,13.60
2018-10-11T17:05:07.890Z,13.50
2018-10-11T17:07:40.039Z,13.30
2018-10-11T17:10:12.011Z,13.10
2018-10-11T17:12:42.999Z,13.00
2018-10-11T17:15:14.578Z,12.80
2018-10-11T17:17:46.757Z,12.70
2018-10-11T17:20:18.176Z,12.60
2018-10-11T17:22:49.538Z,12.50
2018-10-11T17:25:21.574Z,12.40
2018-10-11T17:27:58.262Z,12.20
2018-10-11T17:30:29.602Z,12.10
2018-10-11T17:33:01.006Z,12.00
2018-10-11T17:35:32.638Z,11.90
2018-10-11T17:38:04.829Z,11.80
2018-10-11T17:40:36.178Z,11.70
2018-10-11T17:43:07.617Z,11.50
2018-10-11T17:45:39.326Z,11.50
2018-10-11T17:48:11.344Z,11.40
2018-10-11T17:50:42.805Z,11.30
2018-10-11T17:53:14.561Z,11.20
2018-10-11T17:55:46.396Z,11.10
2018-10-11T17:58:18.151Z,11.10
2018-10-11T18:00:49.837Z,11.00
2018-10-11T18:03:21.870Z,11.00
2018-10-11T18:05:55.610Z,11.00
2018-10-11T18:08:27.295Z,11.00
2018-10-11T18:10:58.687Z,11.10
2018-10-11T18:13:31.140Z,11.30
